KORF/ORF METAR and TAF weather

Enter ICAO airport designator
Station Type Date Time Source
KORF METAR 2019/02/22 23:51 UTC NOAA

KORF 222351Z 04007KT 10SM -RA OVC100 07/04 A3040 RMK AO2 SLP294 P0000 60001 T00670039 10083 20067 53010


Station Type Date Time Source
KORF Decoded METAR 2019/02/22 23:51 UTC NOAA

NORFOLK INTERNATIONAL AIRPORT , VA, United States (KORF) 36-54N 076-12W 14M
Feb 22, 2019 - 06:51 PM EST / 2019.02.22 2351 UTC
Wind: from the NE (040 degrees) at 8 MPH (7 KT):0
Visibility: 10 mile(s):0
Sky conditions: overcast
Weather: light rain
Precipitation last hour: A trace
Temperature: 44.1 F (6.7 C)
Dew Point: 39.0 F (3.9 C)
Relative Humidity: 82%
Pressure (altimeter): 30.4 in. Hg (1029 hPa)
Pressure tendency: 0.03 inches (1.0 hPa) higher than three hours ago
ob: KORF 222351Z 04007KT 10SM -RA OVC100 07/04 A3040 RMK AO2 SLP294 P0000 60001 T00670039 10083 20067 53010
cycle: 0

Station Type Date Time Source
KORF TAF 2019/02/22 18:57 UTC NOAA

TAF KORF 221754Z 2218/2318 05006KT P6SM VCSH OVC070
FM230000 04006KT P6SM VCSH OVC060
FM231200 06008KT P6SM -RA OVC050
FM231500 05010KT 5SM -RA OVC030
FM231700 05010KT 4SM -RA BR OVC025


Example: see airport list